sensor_id;sensor_type;location;lat;lon;timestamp;P1;durP1;ratioP1;P2;durP2;ratioP2
20073;SDS011;10197;54.282;10.078;2024-03-17T00:02:17;10.52;;;2.97;;
20073;SDS011;10197;54.282;10.078;2024-03-17T00:04:44;13.63;;;3.05;;
20073;SDS011;10197;54.282;10.078;2024-03-17T00:07:12;10.55;;;3.15;;
20073;SDS011;10197;54.282;10.078;2024-03-17T00:09:39;8.65;;;2.58;;
20073;SDS011;10197;54.282;10.078;2024-03-17T00:12:05;12.45;;;2.83;;
20073;SDS011;10197;54.282;10.078;2024-03-17T00:14:33;14.00;;;3.20;;
20073;SDS011;10197;54.282;10.078;2024-03-17T00:16:59;8.70;;;2.25;;
20073;SDS011;10197;54.282;10.078;2024-03-17T00:19:26;13.90;;;2.90;;
20073;SDS011;10197;54.282;10.078;2024-03-17T00:21:52;8.95;;;2.97;;
20073;SDS011;10197;54.282;10.078;2024-03-17T00:24:20;11.68;;;2.63;;
20073;SDS011;10197;54.282;10.078;2024-03-17T00:26:47;14.05;;;3.05;;
20073;SDS011;10197;54.282;10.078;2024-03-17T00:29:13;18.73;;;3.47;;
20073;SDS011;10197;54.282;10.078;2024-03-17T00:31:40;12.70;;;3.10;;
20073;SDS011;10197;54.282;10.078;2024-03-17T00:34:06;9.48;;;2.90;;
20073;SDS011;10197;54.282;10.078;2024-03-17T00:36:34;10.65;;;2.97;;
20073;SDS011;10197;54.282;10.078;2024-03-17T00:39:00;11.45;;;2.60;;
20073;SDS011;10197;54.282;10.078;2024-03-17T00:41:28;7.90;;;2.80;;
20073;SDS011;10197;54.282;10.078;2024-03-17T00:43:55;15.15;;;2.58;;
20073;SDS011;10197;54.282;10.078;2024-03-17T00:46:21;14.35;;;2.60;;
20073;SDS011;10197;54.282;10.078;2024-03-17T00:48:48;15.80;;;3.50;;
20073;SDS011;10197;54.282;10.078;2024-03-17T00:51:14;11.02;;;3.05;;
20073;SDS011;10197;54.282;10.078;2024-03-17T00:53:40;12.25;;;3.67;;
20073;SDS011;10197;54.282;10.078;2024-03-17T00:56:06;16.02;;;2.70;;
20073;SDS011;10197;54.282;10.078;2024-03-17T00:58:34;8.93;;;3.00;;
20073;SDS011;10197;54.282;10.078;2024-03-17T01:01:00;12.82;;;2.83;;
20073;SDS011;10197;54.282;10.078;2024-03-17T01:03:27;17.58;;;3.47;;
20073;SDS011;10197;54.282;10.078;2024-03-17T01:05:53;13.32;;;2.97;;
20073;SDS011;10197;54.282;10.078;2024-03-17T01:08:20;16.08;;;2.83;;
20073;SDS011;10197;54.282;10.078;2024-03-17T01:10:47;15.65;;;2.97;;
20073;SDS011;10197;54.282;10.078;2024-03-17T01:13:14;17.65;;;3.00;;
20073;SDS011;10197;54.282;10.078;2024-03-17T01:15:43;17.17;;;3.20;;
20073;SDS011;10197;54.282;10.078;2024-03-17T01:18:10;12.90;;;2.72;;
20073;SDS011;10197;54.282;10.078;2024-03-17T01:20:36;10.68;;;2.72;;
20073;SDS011;10197;54.282;10.078;2024-03-17T01:23:04;12.98;;;3.13;;
20073;SDS011;10197;54.282;10.078;2024-03-17T01:25:29;9.00;;;3.47;;
20073;SDS011;10197;54.282;10.078;2024-03-17T01:27:56;12.35;;;3.17;;
20073;SDS011;10197;54.282;10.078;2024-03-17T01:30:22;18.75;;;3.05;;
20073;SDS011;10197;54.282;10.078;2024-03-17T01:32:50;13.82;;;3.30;;
20073;SDS011;10197;54.282;10.078;2024-03-17T01:35:16;9.82;;;2.97;;
20073;SDS011;10197;54.282;10.078;2024-03-17T01:37:43;11.90;;;3.38;;
20073;SDS011;10197;54.282;10.078;2024-03-17T01:40:09;11.45;;;3.42;;
20073;SDS011;10197;54.282;10.078;2024-03-17T01:42:37;10.25;;;3.10;;
20073;SDS011;10197;54.282;10.078;2024-03-17T01:45:13;11.57;;;3.40;;
20073;SDS011;10197;54.282;10.078;2024-03-17T01:47:46;14.00;;;2.97;;
20073;SDS011;10197;54.282;10.078;2024-03-17T01:50:13;11.27;;;2.60;;
20073;SDS011;10197;54.282;10.078;2024-03-17T01:52:44;13.80;;;3.78;;
20073;SDS011;10197;54.282;10.078;2024-03-17T01:55:11;14.98;;;3.42;;
20073;SDS011;10197;54.282;10.078;2024-03-17T01:57:38;15.65;;;3.10;;
20073;SDS011;10197;54.282;10.078;2024-03-17T02:00:05;14.52;;;3.35;;
20073;SDS011;10197;54.282;10.078;2024-03-17T02:02:33;17.55;;;3.30;;
20073;SDS011;10197;54.282;10.078;2024-03-17T02:04:59;9.10;;;2.78;;
20073;SDS011;10197;54.282;10.078;2024-03-17T02:07:27;11.02;;;2.70;;
20073;SDS011;10197;54.282;10.078;2024-03-17T02:09:53;12.30;;;2.95;;
20073;SDS011;10197;54.282;10.078;2024-03-17T02:12:20;10.88;;;3.08;;
20073;SDS011;10197;54.282;10.078;2024-03-17T02:14:45;14.80;;;3.25;;
20073;SDS011;10197;54.282;10.078;2024-03-17T02:17:13;11.85;;;3.22;;
20073;SDS011;10197;54.282;10.078;2024-03-17T02:19:39;12.15;;;3.00;;
20073;SDS011;10197;54.282;10.078;2024-03-17T02:22:12;9.90;;;3.00;;
20073;SDS011;10197;54.282;10.078;2024-03-17T02:24:38;14.48;;;3.05;;
20073;SDS011;10197;54.282;10.078;2024-03-17T02:27:05;10.05;;;3.38;;
20073;SDS011;10197;54.282;10.078;2024-03-17T02:29:31;11.20;;;2.92;;
20073;SDS011;10197;54.282;10.078;2024-03-17T02:31:57;9.80;;;2.60;;
20073;SDS011;10197;54.282;10.078;2024-03-17T02:34:23;14.07;;;3.10;;
20073;SDS011;10197;54.282;10.078;2024-03-17T02:36:50;11.57;;;3.47;;
20073;SDS011;10197;54.282;10.078;2024-03-17T02:39:17;14.02;;;3.15;;
20073;SDS011;10197;54.282;10.078;2024-03-17T02:42:00;14.88;;;3.50;;
20073;SDS011;10197;54.282;10.078;2024-03-17T02:44:27;13.50;;;3.50;;
20073;SDS011;10197;54.282;10.078;2024-03-17T02:46:54;15.43;;;3.63;;
20073;SDS011;10197;54.282;10.078;2024-03-17T02:49:20;11.02;;;3.80;;
20073;SDS011;10197;54.282;10.078;2024-03-17T02:51:47;12.57;;;3.15;;
20073;SDS011;10197;54.282;10.078;2024-03-17T02:54:14;15.50;;;3.47;;
20073;SDS011;10197;54.282;10.078;2024-03-17T02:56:43;14.75;;;3.15;;
20073;SDS011;10197;54.282;10.078;2024-03-17T02:59:10;14.20;;;3.15;;
20073;SDS011;10197;54.282;10.078;2024-03-17T03:01:36;12.70;;;3.30;;
20073;SDS011;10197;54.282;10.078;2024-03-17T03:04:03;10.57;;;3.22;;
20073;SDS011;10197;54.282;10.078;2024-03-17T03:06:31;11.57;;;3.28;;
20073;SDS011;10197;54.282;10.078;2024-03-17T03:08:58;9.57;;;3.13;;
20073;SDS011;10197;54.282;10.078;2024-03-17T03:11:26;15.52;;;3.78;;
20073;SDS011;10197;54.282;10.078;2024-03-17T03:13:53;10.77;;;2.90;;
20073;SDS011;10197;54.282;10.078;2024-03-17T03:16:20;11.13;;;2.85;;
20073;SDS011;10197;54.282;10.078;2024-03-17T03:18:46;15.13;;;3.88;;
20073;SDS011;10197;54.282;10.078;2024-03-17T03:21:13;18.08;;;4.32;;
20073;SDS011;10197;54.282;10.078;2024-03-17T03:23:40;9.50;;;3.00;;
20073;SDS011;10197;54.282;10.078;2024-03-17T03:26:07;19.27;;;3.60;;
20073;SDS011;10197;54.282;10.078;2024-03-17T03:28:35;15.65;;;3.67;;
20073;SDS011;10197;54.282;10.078;2024-03-17T03:31:02;11.82;;;3.28;;
20073;SDS011;10197;54.282;10.078;2024-03-17T03:33:29;13.63;;;4.05;;
20073;SDS011;10197;54.282;10.078;2024-03-17T03:35:57;11.65;;;3.25;;
20073;SDS011;10197;54.282;10.078;2024-03-17T03:38:23;8.63;;;3.05;;
20073;SDS011;10197;54.282;10.078;2024-03-17T03:40:50;17.35;;;3.88;;
20073;SDS011;10197;54.282;10.078;2024-03-17T03:43:17;17.23;;;3.33;;
20073;SDS011;10197;54.282;10.078;2024-03-17T03:45:45;13.70;;;4.10;;
20073;SDS011;10197;54.282;10.078;2024-03-17T03:48:12;13.30;;;3.47;;
20073;SDS011;10197;54.282;10.078;2024-03-17T03:50:39;10.93;;;3.60;;
20073;SDS011;10197;54.282;10.078;2024-03-17T03:53:06;16.67;;;3.85;;
20073;SDS011;10197;54.282;10.078;2024-03-17T03:55:33;11.38;;;3.20;;
20073;SDS011;10197;54.282;10.078;2024-03-17T03:57:59;12.90;;;2.80;;
20073;SDS011;10197;54.282;10.078;2024-03-17T04:00:28;11.90;;;3.75;;
20073;SDS011;10197;54.282;10.078;2024-03-17T04:02:58;12.68;;;3.50;;
20073;SDS011;10197;54.282;10.078;2024-03-17T04:05:27;19.17;;;4.35;;
20073;SDS011;10197;54.282;10.078;2024-03-17T04:07:53;11.40;;;3.70;;
20073;SDS011;10197;54.282;10.078;2024-03-17T04:10:20;12.68;;;3.40;;
20073;SDS011;10197;54.282;10.078;2024-03-17T04:12:49;11.95;;;3.53;;
20073;SDS011;10197;54.282;10.078;2024-03-17T04:15:15;9.77;;;3.20;;
20073;SDS011;10197;54.282;10.078;2024-03-17T04:17:42;13.55;;;3.35;;
20073;SDS011;10197;54.282;10.078;2024-03-17T04:20:11;11.30;;;3.45;;
20073;SDS011;10197;54.282;10.078;2024-03-17T04:22:39;11.75;;;3.35;;
20073;SDS011;10197;54.282;10.078;2024-03-17T04:25:06;6.57;;;3.13;;
20073;SDS011;10197;54.282;10.078;2024-03-17T04:27:34;7.97;;;2.75;;
20073;SDS011;10197;54.282;10.078;2024-03-17T04:30:01;9.68;;;3.08;;
20073;SDS011;10197;54.282;10.078;2024-03-17T04:32:31;14.23;;;3.33;;
20073;SDS011;10197;54.282;10.078;2024-03-17T04:34:58;10.68;;;2.72;;
20073;SDS011;10197;54.282;10.078;2024-03-17T04:37:27;6.38;;;2.90;;
20073;SDS011;10197;54.282;10.078;2024-03-17T04:39:56;11.88;;;3.28;;
20073;SDS011;10197;54.282;10.078;2024-03-17T04:42:22;11.80;;;2.80;;
20073;SDS011;10197;54.282;10.078;2024-03-17T04:44:49;8.18;;;2.85;;
20073;SDS011;10197;54.282;10.078;2024-03-17T04:47:16;12.73;;;3.25;;
20073;SDS011;10197;54.282;10.078;2024-03-17T04:49:43;10.10;;;2.95;;
20073;SDS011;10197;54.282;10.078;2024-03-17T04:52:10;11.70;;;3.13;;
20073;SDS011;10197;54.282;10.078;2024-03-17T04:54:39;12.60;;;3.08;;
20073;SDS011;10197;54.282;10.078;2024-03-17T04:57:08;10.98;;;3.00;;
20073;SDS011;10197;54.282;10.078;2024-03-17T04:59:35;7.75;;;2.90;;
20073;SDS011;10197;54.282;10.078;2024-03-17T05:02:03;9.68;;;3.25;;
20073;SDS011;10197;54.282;10.078;2024-03-17T05:04:30;8.20;;;2.80;;
20073;SDS011;10197;54.282;10.078;2024-03-17T05:06:57;7.47;;;2.80;;
20073;SDS011;10197;54.282;10.078;2024-03-17T05:09:24;5.97;;;2.72;;
20073;SDS011;10197;54.282;10.078;2024-03-17T05:11:52;7.63;;;3.83;;
20073;SDS011;10197;54.282;10.078;2024-03-17T05:14:19;12.70;;;3.28;;
20073;SDS011;10197;54.282;10.078;2024-03-17T05:16:47;16.13;;;3.20;;
20073;SDS011;10197;54.282;10.078;2024-03-17T05:19:15;6.68;;;2.85;;
20073;SDS011;10197;54.282;10.078;2024-03-17T05:21:44;8.82;;;3.10;;
20073;SDS011;10197;54.282;10.078;2024-03-17T05:24:11;6.85;;;2.88;;
20073;SDS011;10197;54.282;10.078;2024-03-17T05:26:38;6.28;;;2.67;;
20073;SDS011;10197;54.282;10.078;2024-03-17T05:29:06;10.95;;;3.15;;
20073;SDS011;10197;54.282;10.078;2024-03-17T05:31:33;9.43;;;2.75;;
20073;SDS011;10197;54.282;10.078;2024-03-17T05:33:59;7.22;;;2.95;;
20073;SDS011;10197;54.282;10.078;2024-03-17T05:36:26;12.63;;;3.38;;
20073;SDS011;10197;54.282;10.078;2024-03-17T05:38:57;8.82;;;3.10;;
20073;SDS011;10197;54.282;10.078;2024-03-17T05:41:25;9.50;;;2.90;;
20073;SDS011;10197;54.282;10.078;2024-03-17T05:43:53;7.80;;;2.90;;
20073;SDS011;10197;54.282;10.078;2024-03-17T05:46:25;7.25;;;3.17;;
20073;SDS011;10197;54.282;10.078;2024-03-17T05:48:53;8.95;;;3.65;;
20073;SDS011;10197;54.282;10.078;2024-03-17T05:51:20;8.05;;;3.10;;
20073;SDS011;10197;54.282;10.078;2024-03-17T05:53:50;9.05;;;3.00;;
20073;SDS011;10197;54.282;10.078;2024-03-17T05:56:17;10.63;;;3.20;;
20073;SDS011;10197;54.282;10.078;2024-03-17T05:58:44;7.97;;;2.55;;
20073;SDS011;10197;54.282;10.078;2024-03-17T06:01:12;7.20;;;2.95;;
20073;SDS011;10197;54.282;10.078;2024-03-17T06:03:40;18.40;;;4.70;;
20073;SDS011;10197;54.282;10.078;2024-03-17T06:06:08;9.52;;;4.63;;
20073;SDS011;10197;54.282;10.078;2024-03-17T06:08:36;10.63;;;4.30;;
20073;SDS011;10197;54.282;10.078;2024-03-17T06:11:03;10.43;;;3.92;;
20073;SDS011;10197;54.282;10.078;2024-03-17T06:13:30;12.63;;;3.90;;
20073;SDS011;10197;54.282;10.078;2024-03-17T06:15:56;5.20;;;3.10;;
20073;SDS011;10197;54.282;10.078;2024-03-17T06:18:27;7.97;;;3.50;;
20073;SDS011;10197;54.282;10.078;2024-03-17T06:20:55;8.32;;;2.80;;
20073;SDS011;10197;54.282;10.078;2024-03-17T06:23:23;12.23;;;3.22;;
20073;SDS011;10197;54.282;10.078;2024-03-17T06:25:52;10.48;;;3.40;;
20073;SDS011;10197;54.282;10.078;2024-03-17T06:28:19;10.50;;;3.15;;
20073;SDS011;10197;54.282;10.078;2024-03-17T06:30:47;8.95;;;2.95;;
20073;SDS011;10197;54.282;10.078;2024-03-17T06:33:21;11.27;;;3.25;;
20073;SDS011;10197;54.282;10.078;2024-03-17T06:35:47;8.52;;;3.25;;
20073;SDS011;10197;54.282;10.078;2024-03-17T06:38:15;6.43;;;2.92;;
20073;SDS011;10197;54.282;10.078;2024-03-17T06:40:42;6.60;;;3.00;;
20073;SDS011;10197;54.282;10.078;2024-03-17T06:43:14;10.52;;;3.55;;
20073;SDS011;10197;54.282;10.078;2024-03-17T06:45:41;6.47;;;3.15;;
20073;SDS011;10197;54.282;10.078;2024-03-17T06:48:07;9.18;;;3.20;;
20073;SDS011;10197;54.282;10.078;2024-03-17T06:50:34;7.68;;;3.30;;
20073;SDS011;10197;54.282;10.078;2024-03-17T06:53:01;6.95;;;3.17;;
20073;SDS011;10197;54.282;10.078;2024-03-17T06:55:29;7.43;;;3.30;;
20073;SDS011;10197;54.282;10.078;2024-03-17T06:57:55;8.27;;;3.05;;
20073;SDS011;10197;54.282;10.078;2024-03-17T07:00:22;7.63;;;3.00;;
20073;SDS011;10197;54.282;10.078;2024-03-17T07:02:50;4.95;;;3.00;;
20073;SDS011;10197;54.282;10.078;2024-03-17T07:05:17;16.88;;;4.22;;
20073;SDS011;10197;54.282;10.078;2024-03-17T07:07:44;16.45;;;6.53;;
20073;SDS011;10197;54.282;10.078;2024-03-17T07:10:11;9.55;;;3.67;;
20073;SDS011;10197;54.282;10.078;2024-03-17T07:12:40;7.38;;;3.75;;
20073;SDS011;10197;54.282;10.078;2024-03-17T07:15:09;9.85;;;3.58;;
20073;SDS011;10197;54.282;10.078;2024-03-17T07:17:36;7.50;;;3.22;;
20073;SDS011;10197;54.282;10.078;2024-03-17T07:20:03;9.55;;;2.83;;
20073;SDS011;10197;54.282;10.078;2024-03-17T07:22:33;6.75;;;2.70;;
20073;SDS011;10197;54.282;10.078;2024-03-17T07:25:00;6.15;;;2.72;;
20073;SDS011;10197;54.282;10.078;2024-03-17T07:27:27;8.57;;;2.42;;
20073;SDS011;10197;54.282;10.078;2024-03-17T07:29:55;4.85;;;2.10;;
20073;SDS011;10197;54.282;10.078;2024-03-17T07:32:22;6.53;;;2.72;;
20073;SDS011;10197;54.282;10.078;2024-03-17T07:34:49;5.15;;;2.45;;
20073;SDS011;10197;54.282;10.078;2024-03-17T07:37:16;4.75;;;2.35;;
20073;SDS011;10197;54.282;10.078;2024-03-17T07:39:43;5.90;;;2.65;;
20073;SDS011;10197;54.282;10.078;2024-03-17T07:42:10;6.95;;;2.50;;
20073;SDS011;10197;54.282;10.078;2024-03-17T07:44:38;4.43;;;2.47;;
20073;SDS011;10197;54.282;10.078;2024-03-17T07:47:06;7.60;;;2.88;;
20073;SDS011;10197;54.282;10.078;2024-03-17T07:49:35;5.30;;;2.10;;
20073;SDS011;10197;54.282;10.078;2024-03-17T07:52:05;4.72;;;1.77;;
20073;SDS011;10197;54.282;10.078;2024-03-17T07:54:32;5.60;;;2.15;;
20073;SDS011;10197;54.282;10.078;2024-03-17T07:57:00;4.40;;;2.08;;
20073;SDS011;10197;54.282;10.078;2024-03-17T07:59:28;5.32;;;2.10;;
20073;SDS011;10197;54.282;10.078;2024-03-17T08:01:55;3.80;;;2.28;;
20073;SDS011;10197;54.282;10.078;2024-03-17T08:04:24;4.38;;;1.90;;
20073;SDS011;10197;54.282;10.078;2024-03-17T08:06:50;5.60;;;2.00;;
20073;SDS011;10197;54.282;10.078;2024-03-17T08:09:17;10.20;;;1.90;;
20073;SDS011;10197;54.282;10.078;2024-03-17T08:11:44;9.88;;;2.00;;
20073;SDS011;10197;54.282;10.078;2024-03-17T08:14:12;7.28;;;1.80;;
20073;SDS011;10197;54.282;10.078;2024-03-17T08:16:39;4.68;;;2.15;;
20073;SDS011;10197;54.282;10.078;2024-03-17T08:19:06;6.82;;;2.17;;
20073;SDS011;10197;54.282;10.078;2024-03-17T08:21:35;3.38;;;1.75;;
20073;SDS011;10197;54.282;10.078;2024-03-17T08:24:02;7.07;;;1.95;;
20073;SDS011;10197;54.282;10.078;2024-03-17T08:26:29;8.23;;;1.90;;
20073;SDS011;10197;54.282;10.078;2024-03-17T08:28:55;8.27;;;2.20;;
20073;SDS011;10197;54.282;10.078;2024-03-17T08:31:23;6.50;;;1.95;;
20073;SDS011;10197;54.282;10.078;2024-03-17T08:33:50;3.45;;;1.35;;
20073;SDS011;10197;54.282;10.078;2024-03-17T08:36:17;4.22;;;1.63;;
20073;SDS011;10197;54.282;10.078;2024-03-17T08:38:46;7.18;;;2.05;;
20073;SDS011;10197;54.282;10.078;2024-03-17T08:41:13;3.67;;;1.80;;
20073;SDS011;10197;54.282;10.078;2024-03-17T08:43:40;3.60;;;1.67;;
20073;SDS011;10197;54.282;10.078;2024-03-17T08:46:08;5.57;;;1.73;;
20073;SDS011;10197;54.282;10.078;2024-03-17T08:48:36;5.22;;;1.67;;
20073;SDS011;10197;54.282;10.078;2024-03-17T08:51:04;6.10;;;1.80;;
20073;SDS011;10197;54.282;10.078;2024-03-17T08:53:31;3.45;;;1.42;;
20073;SDS011;10197;54.282;10.078;2024-03-17T08:56:00;5.13;;;1.52;;
20073;SDS011;10197;54.282;10.078;2024-03-17T08:58:27;8.73;;;1.85;;
20073;SDS011;10197;54.282;10.078;2024-03-17T09:00:53;5.55;;;1.85;;
20073;SDS011;10197;54.282;10.078;2024-03-17T09:03:23;5.25;;;1.70;;
20073;SDS011;10197;54.282;10.078;2024-03-17T09:05:52;4.85;;;1.83;;
20073;SDS011;10197;54.282;10.078;2024-03-17T09:08:20;4.30;;;1.80;;
20073;SDS011;10197;54.282;10.078;2024-03-17T09:10:47;4.32;;;1.70;;
20073;SDS011;10197;54.282;10.078;2024-03-17T09:13:16;6.15;;;1.65;;
20073;SDS011;10197;54.282;10.078;2024-03-17T09:15:49;3.65;;;1.70;;
20073;SDS011;10197;54.282;10.078;2024-03-17T09:18:16;2.92;;;1.60;;
20073;SDS011;10197;54.282;10.078;2024-03-17T09:20:43;4.53;;;1.60;;
20073;SDS011;10197;54.282;10.078;2024-03-17T09:23:12;3.90;;;1.40;;
20073;SDS011;10197;54.282;10.078;2024-03-17T09:25:39;3.95;;;1.77;;
20073;SDS011;10197;54.282;10.078;2024-03-17T09:28:06;5.68;;;1.40;;
20073;SDS011;10197;54.282;10.078;2024-03-17T09:30:34;4.82;;;1.80;;
20073;SDS011;10197;54.282;10.078;2024-03-17T09:33:00;4.93;;;1.48;;
20073;SDS011;10197;54.282;10.078;2024-03-17T09:35:29;5.70;;;1.52;;
20073;SDS011;10197;54.282;10.078;2024-03-17T09:37:56;5.05;;;1.77;;
20073;SDS011;10197;54.282;10.078;2024-03-17T09:40:23;3.67;;;1.55;;
20073;SDS011;10197;54.282;10.078;2024-03-17T09:42:50;5.50;;;1.52;;
20073;SDS011;10197;54.282;10.078;2024-03-17T09:45:17;5.75;;;1.45;;
20073;SDS011;10197;54.282;10.078;2024-03-17T09:47:46;5.03;;;1.60;;
20073;SDS011;10197;54.282;10.078;2024-03-17T09:50:13;4.47;;;1.40;;
20073;SDS011;10197;54.282;10.078;2024-03-17T09:52:41;3.40;;;1.55;;
20073;SDS011;10197;54.282;10.078;2024-03-17T09:55:09;5.13;;;1.90;;
20073;SDS011;10197;54.282;10.078;2024-03-17T09:57:41;5.20;;;1.80;;
20073;SDS011;10197;54.282;10.078;2024-03-17T10:00:09;5.80;;;1.50;;
20073;SDS011;10197;54.282;10.078;2024-03-17T10:02:41;5.75;;;1.85;;
20073;SDS011;10197;54.282;10.078;2024-03-17T10:05:19;4.18;;;1.77;;
20073;SDS011;10197;54.282;10.078;2024-03-17T10:07:46;3.20;;;1.42;;
20073;SDS011;10197;54.282;10.078;2024-03-17T10:10:14;4.53;;;1.77;;
20073;SDS011;10197;54.282;10.078;2024-03-17T10:12:41;2.95;;;1.70;;
20073;SDS011;10197;54.282;10.078;2024-03-17T10:15:10;3.38;;;1.55;;
20073;SDS011;10197;54.282;10.078;2024-03-17T10:17:37;2.92;;;1.48;;
20073;SDS011;10197;54.282;10.078;2024-03-17T10:20:14;4.88;;;1.50;;
20073;SDS011;10197;54.282;10.078;2024-03-17T10:22:59;4.03;;;1.60;;
20073;SDS011;10197;54.282;10.078;2024-03-17T10:25:27;6.43;;;1.45;;
20073;SDS011;10197;54.282;10.078;2024-03-17T10:27:54;3.90;;;2.13;;
20073;SDS011;10197;54.282;10.078;2024-03-17T10:30:22;2.90;;;1.60;;
20073;SDS011;10197;54.282;10.078;2024-03-17T10:32:54;4.93;;;1.60;;
20073;SDS011;10197;54.282;10.078;2024-03-17T10:35:25;5.05;;;1.75;;
20073;SDS011;10197;54.282;10.078;2024-03-17T10:37:53;2.78;;;1.50;;
20073;SDS011;10197;54.282;10.078;2024-03-17T10:40:22;3.58;;;1.63;;
20073;SDS011;10197;54.282;10.078;2024-03-17T10:42:49;3.17;;;1.70;;
20073;SDS011;10197;54.282;10.078;2024-03-17T10:45:16;5.93;;;1.73;;
20073;SDS011;10197;54.282;10.078;2024-03-17T10:47:44;2.95;;;1.73;;
20073;SDS011;10197;54.282;10.078;2024-03-17T10:50:16;3.05;;;1.52;;
20073;SDS011;10197;54.282;10.078;2024-03-17T10:52:44;2.85;;;1.60;;
20073;SDS011;10197;54.282;10.078;2024-03-17T10:55:20;2.45;;;1.50;;
20073;SDS011;10197;54.282;10.078;2024-03-17T10:57:50;2.30;;;1.70;;
20073;SDS011;10197;54.282;10.078;2024-03-17T11:00:17;2.17;;;1.83;;
20073;SDS011;10197;54.282;10.078;2024-03-17T11:02:47;3.55;;;1.70;;
20073;SDS011;10197;54.282;10.078;2024-03-17T11:05:17;2.00;;;1.58;;
20073;SDS011;10197;54.282;10.078;2024-03-17T11:07:45;2.30;;;1.52;;
20073;SDS011;10197;54.282;10.078;2024-03-17T11:10:16;3.88;;;1.58;;
20073;SDS011;10197;54.282;10.078;2024-03-17T11:12:49;4.15;;;1.92;;
20073;SDS011;10197;54.282;10.078;2024-03-17T11:15:38;3.40;;;2.17;;
20073;SDS011;10197;54.282;10.078;2024-03-17T11:21:07;4.50;;;1.85;;
20073;SDS011;10197;54.282;10.078;2024-03-17T11:23:54;3.47;;;2.08;;
20073;SDS011;10197;54.282;10.078;2024-03-17T11:26:26;5.78;;;1.90;;
20073;SDS011;10197;54.282;10.078;2024-03-17T11:28:54;4.00;;;1.52;;
20073;SDS011;10197;54.282;10.078;2024-03-17T11:31:40;4.25;;;1.92;;
20073;SDS011;10197;54.282;10.078;2024-03-17T11:34:29;5.03;;;1.75;;
20073;SDS011;10197;54.282;10.078;2024-03-17T11:37:00;3.95;;;2.10;;
20073;SDS011;10197;54.282;10.078;2024-03-17T11:39:47;3.30;;;1.90;;
20073;SDS011;10197;54.282;10.078;2024-03-17T11:42:24;3.25;;;1.58;;
20073;SDS011;10197;54.282;10.078;2024-03-17T11:45:02;2.15;;;1.45;;
20073;SDS011;10197;54.282;10.078;2024-03-17T11:47:32;4.20;;;1.50;;
20073;SDS011;10197;54.282;10.078;2024-03-17T11:50:03;2.58;;;1.40;;
20073;SDS011;10197;54.282;10.078;2024-03-17T11:52:31;3.17;;;1.67;;
20073;SDS011;10197;54.282;10.078;2024-03-17T11:54:56;2.33;;;1.83;;
20073;SDS011;10197;54.282;10.078;2024-03-17T11:57:24;2.78;;;1.70;;
20073;SDS011;10197;54.282;10.078;2024-03-17T11:59:51;3.30;;;1.48;;
20073;SDS011;10197;54.282;10.078;2024-03-17T12:02:20;2.28;;;1.88;;
20073;SDS011;10197;54.282;10.078;2024-03-17T12:04:48;3.20;;;1.60;;
20073;SDS011;10197;54.282;10.078;2024-03-17T12:07:15;4.68;;;1.65;;
20073;SDS011;10197;54.282;10.078;2024-03-17T12:09:41;3.78;;;1.88;;
20073;SDS011;10197;54.282;10.078;2024-03-17T12:12:09;3.55;;;1.52;;
20073;SDS011;10197;54.282;10.078;2024-03-17T12:14:36;2.75;;;1.63;;
20073;SDS011;10197;54.282;10.078;2024-03-17T12:17:03;4.40;;;1.70;;
20073;SDS011;10197;54.282;10.078;2024-03-17T12:19:31;2.63;;;1.40;;
20073;SDS011;10197;54.282;10.078;2024-03-17T12:21:58;3.15;;;1.48;;
20073;SDS011;10197;54.282;10.078;2024-03-17T12:24:25;2.78;;;1.75;;
20073;SDS011;10197;54.282;10.078;2024-03-17T12:26:53;4.13;;;1.60;;
20073;SDS011;10197;54.282;10.078;2024-03-17T12:29:24;3.88;;;1.60;;
20073;SDS011;10197;54.282;10.078;2024-03-17T12:31:55;2.08;;;1.48;;
20073;SDS011;10197;54.282;10.078;2024-03-17T12:34:22;2.47;;;1.65;;
20073;SDS011;10197;54.282;10.078;2024-03-17T12:36:54;3.55;;;1.52;;
20073;SDS011;10197;54.282;10.078;2024-03-17T12:39:21;2.20;;;1.55;;
20073;SDS011;10197;54.282;10.078;2024-03-17T12:42:00;2.05;;;1.50;;
20073;SDS011;10197;54.282;10.078;2024-03-17T12:44:27;3.60;;;1.70;;
20073;SDS011;10197;54.282;10.078;2024-03-17T12:46:57;2.70;;;1.65;;
20073;SDS011;10197;54.282;10.078;2024-03-17T12:49:25;3.88;;;1.73;;
20073;SDS011;10197;54.282;10.078;2024-03-17T12:51:53;4.03;;;1.60;;
20073;SDS011;10197;54.282;10.078;2024-03-17T12:54:22;3.08;;;1.50;;
20073;SDS011;10197;54.282;10.078;2024-03-17T12:56:49;2.50;;;1.70;;
20073;SDS011;10197;54.282;10.078;2024-03-17T12:59:38;2.80;;;1.52;;
20073;SDS011;10197;54.282;10.078;2024-03-17T13:02:23;3.00;;;1.60;;
20073;SDS011;10197;54.282;10.078;2024-03-17T13:05:05;3.58;;;1.40;;
20073;SDS011;10197;54.282;10.078;2024-03-17T13:07:43;2.85;;;1.45;;
20073;SDS011;10197;54.282;10.078;2024-03-17T13:10:12;4.75;;;1.83;;
20073;SDS011;10197;54.282;10.078;2024-03-17T13:12:42;2.20;;;1.63;;
20073;SDS011;10197;54.282;10.078;2024-03-17T13:15:10;2.65;;;1.42;;
20073;SDS011;10197;54.282;10.078;2024-03-17T13:17:37;2.92;;;1.55;;
20073;SDS011;10197;54.282;10.078;2024-03-17T13:20:05;1.75;;;1.20;;
20073;SDS011;10197;54.282;10.078;2024-03-17T13:22:36;1.88;;;1.58;;
20073;SDS011;10197;54.282;10.078;2024-03-17T13:25:07;2.67;;;1.33;;
20073;SDS011;10197;54.282;10.078;2024-03-17T13:27:35;2.53;;;1.35;;
20073;SDS011;10197;54.282;10.078;2024-03-17T13:30:02;2.50;;;1.50;;
20073;SDS011;10197;54.282;10.078;2024-03-17T13:32:30;3.30;;;1.60;;
20073;SDS011;10197;54.282;10.078;2024-03-17T13:34:56;1.88;;;1.50;;
20073;SDS011;10197;54.282;10.078;2024-03-17T13:37:23;3.42;;;1.40;;
20073;SDS011;10197;54.282;10.078;2024-03-17T13:39:50;3.55;;;1.52;;
20073;SDS011;10197;54.282;10.078;2024-03-17T13:42:18;2.78;;;1.33;;
20073;SDS011;10197;54.282;10.078;2024-03-17T13:44:45;1.42;;;1.33;;
20073;SDS011;10197;54.282;10.078;2024-03-17T13:47:12;4.15;;;1.92;;
20073;SDS011;10197;54.282;10.078;2024-03-17T13:49:40;2.35;;;1.50;;
20073;SDS011;10197;54.282;10.078;2024-03-17T13:52:07;3.80;;;1.75;;
20073;SDS011;10197;54.282;10.078;2024-03-17T13:54:34;2.10;;;1.50;;
20073;SDS011;10197;54.282;10.078;2024-03-17T13:57:00;2.63;;;1.30;;
20073;SDS011;10197;54.282;10.078;2024-03-17T13:59:31;2.72;;;1.63;;
20073;SDS011;10197;54.282;10.078;2024-03-17T14:01:59;1.30;;;1.20;;
20073;SDS011;10197;54.282;10.078;2024-03-17T14:04:27;5.45;;;1.70;;
20073;SDS011;10197;54.282;10.078;2024-03-17T14:06:54;3.78;;;1.55;;
20073;SDS011;10197;54.282;10.078;2024-03-17T14:09:20;2.58;;;1.50;;
20073;SDS011;10197;54.282;10.078;2024-03-17T14:11:47;6.22;;;1.40;;
20073;SDS011;10197;54.282;10.078;2024-03-17T14:14:15;2.58;;;1.30;;
20073;SDS011;10197;54.282;10.078;2024-03-17T14:16:43;2.20;;;1.38;;
20073;SDS011;10197;54.282;10.078;2024-03-17T14:19:10;2.17;;;1.20;;
20073;SDS011;10197;54.282;10.078;2024-03-17T14:21:37;3.28;;;1.60;;
20073;SDS011;10197;54.282;10.078;2024-03-17T14:24:04;2.33;;;1.20;;
20073;SDS011;10197;54.282;10.078;2024-03-17T14:26:32;3.88;;;1.55;;
20073;SDS011;10197;54.282;10.078;2024-03-17T14:29:00;2.10;;;1.40;;
20073;SDS011;10197;54.282;10.078;2024-03-17T14:31:29;1.70;;;1.25;;
20073;SDS011;10197;54.282;10.078;2024-03-17T14:33:58;1.42;;;1.27;;
20073;SDS011;10197;54.282;10.078;2024-03-17T14:36:25;5.40;;;1.30;;
20073;SDS011;10197;54.282;10.078;2024-03-17T14:38:53;1.42;;;1.20;;
20073;SDS011;10197;54.282;10.078;2024-03-17T14:41:20;2.15;;;1.30;;